This is the latest recevied weather packets stored in our database for station/object N9DMT-13. If no packets are shown the sender has not sent any weather packets the latest 10 day(s).
| Time | Temp. | Humidity | Pressure | Rain* | Wind** | Luminosity | Snow |
|---|---|---|---|---|---|---|---|
| 1778246952 | 8.89° C | 55% | 978.2 hPa | 0 mm | - | - | - |
| 1778246651 | 8.33° C | 60% | 978.2 hPa | 0 mm | - | - | - |
| 1778246350 | 7.22° C | 64% | 978.3 hPa | 0 mm | - | - | - |
| 1778246050 | 6.67° C | 64% | 978.2 hPa | 0 mm | - | - | - |
| 1778245749 | 6.11° C | 68% | 978.3 hPa | 0 mm | - | - | - |
| 1778245448 | 5.56° C | 70% | 978.3 hPa | 0 mm | - | - | - |
| 1778245147 | 5.56° C | 70% | 978.2 hPa | 0 mm | - | - | - |
| 1778244546 | 5° C | 69% | 978.2 hPa | 0 mm | - | - | - |
| 1778244245 | 5° C | 71% | 978.7 hPa | 0 mm | - | - | - |
| 1778243944 | 5° C | 70% | 978.5 hPa | 0 mm | - | - | - |
| 1778243643 | 3.89° C | 72% | 978.5 hPa | 0 mm | - | - | - |
| 1778243343 | 3.33° C | 74% | 978.4 hPa | 0 mm | - | - | - |
| 1778243042 | 2.78° C | 74% | 978.5 hPa | 0 mm | - | - | - |
| 1778242741 | 3.33° C | 73% | 978.4 hPa | 0 mm | - | - | - |
| 1778242440 | 2.22° C | 78% | 978.5 hPa | 0 mm | - | - | - |
| 1778242139 | 1.11° C | 86% | 978.4 hPa | 0 mm | - | - | - |
| 1778241838 | 0° C | 89% | 978.4 hPa | 0 mm | - | - | - |
| 1778241537 | -0.56° C | 91% | 978.2 hPa | 0 mm | - | - | - |
| 1778241237 | -1.11° C | 92% | 978.4 hPa | 0 mm | - | - | - |
| 1778240936 | -1.67° C | 93% | 978.4 hPa | 0 mm | - | - | - |
| 1778240635 | -1.67° C | 93% | 978.4 hPa | 0 mm | - | - | - |
| 1778240334 | -1.67° C | 94% | 978.4 hPa | 0 mm | - | - | - |
| 1778240033 | -1.67° C | 94% | 978.4 hPa | 0 mm | - | - | - |
| 1778239732 | -2.22° C | 94% | 978.1 hPa | 0 mm | - | - | - |
| 1778239431 | -2.22° C | 94% | 978.3 hPa | 0 mm | - | - | - |
* Rain latest hour (hover to see other rain measurements)
** Current wind speed in m/s (hover to see current wind gust speed)